Time;durP1;ratioP1;P1;durP2;ratioP2;P2;SDS_P1;SDS_P2;PMS_P1;PMS_P2;Temp;Humidity;BMP_temperature;BMP_pressure;BME280_temperature;BME280_humidity;BME280_pressure;Samples;Min_cycle;Max_cycle;Signal;HPM_P1;HPM_P2
2022/09/17 07:24:04;;;;;;;;;;;12.70;99.90;;;;;;4481427;31;19998;-77
2022/09/17 07:26:32;;;;;;;;;;;12.20;99.90;;;;;;4481277;32;19998;-77
2022/09/17 07:28:59;;;;;;;;;;;12.20;99.90;;;;;;4480207;32;42117;-76
2022/09/17 07:31:26;;;;;;;;;;;12.20;99.90;;;;;;4480240;32;42411;-77
2022/09/17 07:33:53;;;;;;;;;;;12.20;99.90;;;;;;4480246;32;43481;-77
2022/09/17 07:36:20;;;;;;;;;;;12.20;99.90;;;;;;4479170;32;42803;-77
2022/09/17 07:38:47;;;;;;;;;;;12.30;99.90;;;;;;4478811;32;43023;-77
2022/09/17 07:41:15;;;;;;;;;;;12.30;99.90;;;;;;4480467;32;43716;-78
2022/09/17 07:43:43;;;;;;;;;;;12.30;99.90;;;;;;4480155;32;43025;-78
2022/09/17 07:46:14;;;;;;;;;;;12.40;99.90;;;;;;4480148;32;42800;-78
2022/09/17 07:48:41;;;;;;;;;;;12.40;99.90;;;;;;4479240;32;43037;-79
2022/09/17 07:51:13;;;;;;;;;;;12.40;99.90;;;;;;4478891;32;44000;-78
2022/09/17 07:53:40;;;;;;;;;;;12.40;99.90;;;;;;4480315;32;43697;-78
2022/09/17 07:56:07;;;;;;;;;;;12.40;99.90;;;;;;4479767;32;44241;-78
2022/09/17 07:58:38;;;;;;;;;;;12.50;99.90;;;;;;4480819;32;19995;-78
2022/09/17 08:01:09;;;;;;;;;;;12.50;99.90;;;;;;4479929;32;42780;-77
2022/09/17 08:03:37;;;;;;;;;;;12.50;99.90;;;;;;4479842;32;44041;-78
2022/09/17 08:06:05;;;;;;;;;;;12.50;99.90;;;;;;4478489;32;43217;-78
2022/09/17 08:08:33;;;;;;;;;;;12.50;99.90;;;;;;4478552;32;42540;-77
2022/09/17 08:11:05;;;;;;;;;;;12.50;99.90;;;;;;4480014;32;43727;-78
2022/09/17 08:13:32;;;;;;;;;;;12.50;99.90;;;;;;4479629;32;43684;-77
2022/09/17 08:16:00;;;;;;;;;;;12.50;99.90;;;;;;4478603;32;43527;-78
2022/09/17 08:18:28;;;;;;;;;;;12.50;99.90;;;;;;4478621;32;43928;-78
2022/09/17 08:20:59;;;;;;;;;;;12.60;99.90;;;;;;4478819;32;43749;-75
2022/09/17 08:23:26;;;;;;;;;;;12.60;99.90;;;;;;4479564;32;43088;-78
2022/09/17 08:25:57;;;;;;;;;;;12.60;99.90;;;;;;4479650;32;42919;-73
2022/09/17 08:28:25;;;;;;;;;;;12.60;99.90;;;;;;4479717;32;43227;-77
2022/09/17 08:30:53;;;;;;;;;;;12.60;99.90;;;;;;4479434;32;20035;-76
2022/09/17 08:33:20;;;;;;;;;;;12.60;99.90;;;;;;4478449;32;43768;-77
2022/09/17 08:35:53;;;;;;;;;;;12.60;99.90;;;;;;4468603;32;42714;-76
2022/09/17 08:38:21;;;;;;;;;;;12.60;99.90;;;;;;4467826;32;43029;-77
2022/09/17 08:41:08;;;;;;;;;;;12.60;99.90;;;;;;4467842;32;43799;-76
2022/09/17 08:43:48;;;;;;;;;;;12.60;99.90;;;;;;4437036;32;43898;-77
2022/09/17 08:46:15;;;;;;;;;;;12.60;99.90;;;;;;4468645;32;43856;-77
2022/09/17 08:48:45;;;;;;;;;;;12.60;99.90;;;;;;4468670;32;42484;-79
2022/09/17 08:51:20;;;;;;;;;;;12.60;99.90;;;;;;4468713;32;43249;-78
2022/09/17 08:54:14;;;;;;;;;;;12.60;99.90;;;;;;4468755;32;43750;-76
2022/09/17 08:56:43;;;;;;;;;;;12.60;99.90;;;;;;4469107;32;43637;-76
2022/09/17 08:59:31;;;;;;;;;;;12.60;99.90;;;;;;4467815;32;43036;-76
2022/09/17 09:02:02;;;;;;;;;;;12.60;99.90;;;;;;4469488;32;20013;-77
2022/09/17 09:04:35;;;;;;;;;;;12.60;99.90;;;;;;4467429;32;42110;-76
2022/09/17 09:07:12;;;;;;;;;;;12.60;99.90;;;;;;4468340;32;43652;-77
2022/09/17 09:09:44;;;;;;;;;;;12.60;99.90;;;;;;4468496;32;45191;-77
2022/09/17 09:12:16;;;;;;;;;;;12.70;99.90;;;;;;4468429;32;43650;-77
2022/09/17 09:14:52;;;;;;;;;;;12.60;99.90;;;;;;4468514;32;43860;-78
2022/09/17 09:17:21;;;;;;;;;;;12.70;99.90;;;;;;4468659;32;43698;-78
2022/09/17 09:19:48;;;;;;;;;;;12.70;99.90;;;;;;4468422;32;43024;-77
2022/09/17 09:22:34;;;;;;;;;;;12.70;99.90;;;;;;4467857;32;43181;-74
2022/09/17 09:25:04;;;;;;;;;;;12.70;99.90;;;;;;4468321;32;43708;-78
2022/09/17 09:27:53;;;;;;;;;;;12.70;99.90;;;;;;4468076;32;42854;-77
2022/09/17 09:30:22;;;;;;;;;;;12.70;99.90;;;;;;4466932;32;44076;-77
2022/09/17 09:32:55;;;;;;;;;;;12.70;99.90;;;;;;4469339;32;20392;-77
2022/09/17 09:35:26;;;;;;;;;;;12.70;99.90;;;;;;4468282;32;44201;-77
2022/09/17 09:37:58;;;;;;;;;;;12.70;99.90;;;;;;4467957;32;43157;-77
2022/09/17 09:40:38;;;;;;;;;;;12.70;99.90;;;;;;4467817;32;42493;-77
2022/09/17 09:43:31;;;;;;;;;;;12.80;99.90;;;;;;4467845;32;43972;-78
2022/09/17 09:46:37;;;;;;;;;;;12.80;99.90;;;;;;4467389;32;45776;-77
2022/09/17 09:49:16;;;;;;;;;;;12.80;99.90;;;;;;4466723;32;42908;-77
2022/09/17 09:52:02;;;;;;;;;;;12.80;99.90;;;;;;4468070;32;43721;-76
2022/09/17 09:54:38;;;;;;;;;;;12.80;99.90;;;;;;4466676;32;43935;-77
2022/09/17 09:57:28;;;;;;;;;;;12.80;99.90;;;;;;4467625;32;43682;-77
2022/09/17 10:00:14;;;;;;;;;;;12.80;99.90;;;;;;4467889;32;43605;-77
2022/09/17 10:02:41;;;;;;;;;;;12.80;99.90;;;;;;4467840;32;43776;-78
2022/09/17 10:05:09;;;;;;;;;;;12.80;99.90;;;;;;4468226;32;20727;-79
2022/09/17 10:07:43;;;;;;;;;;;12.80;99.90;;;;;;4467362;32;44711;-78
2022/09/17 10:10:10;;;;;;;;;;;12.80;99.90;;;;;;4467512;32;43698;-78
2022/09/17 10:12:37;;;;;;;;;;;12.90;99.90;;;;;;4466333;32;44195;-77
2022/09/17 10:15:23;;;;;;;;;;;12.90;99.90;;;;;;4467563;32;43727;-77
2022/09/17 10:18:09;;;;;;;;;;;12.90;99.90;;;;;;4467442;32;43605;-79
2022/09/17 10:20:47;;;;;;;;;;;12.90;99.90;;;;;;4467708;32;43766;-77
2022/09/17 10:23:14;;;;;;;;;;;12.90;99.90;;;;;;4467293;32;43709;-78
2022/09/17 10:25:42;;;;;;;;;;;12.90;99.90;;;;;;4467468;32;43239;-77
2022/09/17 10:28:25;;;;;;;;;;;12.90;99.90;;;;;;4466535;32;43411;-77
2022/09/17 10:30:59;;;;;;;;;;;12.90;99.90;;;;;;4467130;32;42191;-78
2022/09/17 10:33:31;;;;;;;;;;;12.90;99.90;;;;;;4466197;32;42151;-75
2022/09/17 10:36:00;;;;;;;;;;;12.90;99.90;;;;;;4468166;32;20098;-76
2022/09/17 10:38:30;;;;;;;;;;;12.90;99.90;;;;;;4467152;32;42527;-83
2022/09/17 10:41:16;;;;;;;;;;;12.90;99.90;;;;;;4467054;32;43714;-77
2022/09/17 10:43:44;;;;;;;;;;;12.90;99.90;;;;;;4465927;32;42534;-75
2022/09/17 10:46:13;;;;;;;;;;;12.90;99.90;;;;;;4466977;32;42351;-79
2022/09/17 10:48:42;;;;;;;;;;;12.90;99.90;;;;;;4466905;32;42864;-78
2022/09/17 10:51:10;;;;;;;;;;;12.90;99.90;;;;;;4467252;32;44875;-77
2022/09/17 10:53:54;;;;;;;;;;;12.90;99.90;;;;;;4466688;32;42502;-78
2022/09/17 10:56:24;;;;;;;;;;;12.90;99.90;;;;;;4466861;32;43478;-79
2022/09/17 10:59:00;;;;;;;;;;;12.90;99.90;;;;;;4466898;32;43760;-77
2022/09/17 11:01:33;;;;;;;;;;;12.90;99.90;;;;;;4467005;32;43731;-80
2022/09/17 11:04:13;;;;;;;;;;;12.90;99.90;;;;;;4466679;32;42703;-75
2022/09/17 11:06:59;;;;;;;;;;;12.90;99.90;;;;;;4466840;32;20023;-79
2022/09/17 11:09:26;;;;;;;;;;;12.90;99.90;;;;;;4467030;32;43734;-79
2022/09/17 11:12:02;;;;;;;;;;;12.90;99.90;;;;;;4466904;32;43252;-81
2022/09/17 11:14:32;;;;;;;;;;;12.90;99.90;;;;;;4467132;32;43045;-76
2022/09/17 11:17:22;;;;;;;;;;;13.00;99.90;;;;;;4466839;32;43043;-78
2022/09/17 11:20:01;;;;;;;;;;;13.00;99.90;;;;;;4466971;32;43715;-77
2022/09/17 11:22:43;;;;;;;;;;;13.00;99.90;;;;;;4466132;32;43056;-74
2022/09/17 11:25:22;;;;;;;;;;;13.00;99.90;;;;;;4466963;32;43753;-75
2022/09/17 11:27:49;;;;;;;;;;;13.00;99.90;;;;;;4466742;32;42888;-77
2022/09/17 11:30:18;;;;;;;;;;;13.10;99.90;;;;;;4466661;32;43663;-78
2022/09/17 11:32:55;;;;;;;;;;;13.00;99.90;;;;;;4466683;32;43479;-80
2022/09/17 11:35:31;;;;;;;;;;;13.10;99.90;;;;;;4466410;32;42433;-74
2022/09/17 11:38:04;;;;;;;;;;;13.10;99.90;;;;;;4467410;32;20068;-76
2022/09/17 11:41:04;;;;;;;;;;;13.10;99.90;;;;;;4465472;32;43045;-73
2022/09/17 11:43:36;;;;;;;;;;;13.00;99.90;;;;;;4431578;32;43651;-76
2022/09/17 11:46:18;;;;;;;;;;;13.10;99.90;;;;;;4465882;32;43075;-76
2022/09/17 11:48:57;;;;;;;;;;;13.00;99.90;;;;;;4465607;32;43172;-78
2022/09/17 11:51:54;;;;;;;;;;;13.00;99.90;;;;;;4466517;32;42844;-78
2022/09/17 11:54:22;;;;;;;;;;;13.00;99.90;;;;;;4450765;32;19995;-77
2022/09/17 11:56:56;;;;;;;;;;;13.00;99.90;;;;;;4465308;32;42469;-77
2022/09/17 11:59:31;;;;;;;;;;;13.00;99.90;;;;;;4465350;32;41944;-78
2022/09/17 12:02:04;;;;;;;;;;;13.00;99.90;;;;;;4466346;32;43485;-76
2022/09/17 12:04:31;;;;;;;;;;;13.00;99.90;;;;;;4466078;32;43657;-77
2022/09/17 12:07:12;;;;;;;;;;;12.90;99.90;;;;;;4464641;32;44120;-78
2022/09/17 12:09:40;;;;;;;;;;;13.00;99.90;;;;;;4468249;32;20103;-78
2022/09/17 12:12:12;;;;;;;;;;;13.00;99.90;;;;;;4469116;32;43721;-78
2022/09/17 12:15:04;;;;;;;;;;;13.00;99.90;;;;;;4468249;32;45184;-78
2022/09/17 12:17:41;;;;;;;;;;;13.00;99.90;;;;;;4469270;32;43742;-80
2022/09/17 12:20:18;;;;;;;;;;;13.10;99.90;;;;;;4468985;32;43675;-79
2022/09/17 12:22:47;;;;;;;;;;;13.10;99.90;;;;;;4468545;32;43007;-81
2022/09/17 12:25:15;;;;;;;;;;;13.10;99.90;;;;;;4468500;32;42405;-84
2022/09/17 12:28:06;;;;;;;;;;;13.10;99.90;;;;;;4468526;32;43711;-78
2022/09/17 12:30:45;;;;;;;;;;;13.10;99.90;;;;;;4468904;32;43738;-77
2022/09/17 12:33:12;;;;;;;;;;;13.10;99.90;;;;;;4468915;32;42884;-75
2022/09/17 12:36:01;;;;;;;;;;;13.10;99.90;;;;;;4468424;32;43650;-79
2022/09/17 12:38:50;;;;;;;;;;;13.20;99.90;;;;;;4467718;32;43648;-78
2022/09/17 12:41:35;;;;;;;;;;;13.20;99.90;;;;;;4469582;32;21790;-83
2022/09/17 12:44:16;;;;;;;;;;;13.20;99.90;;;;;;4467438;32;43474;-80
2022/09/17 12:46:51;;;;;;;;;;;13.20;99.90;;;;;;4468879;32;43622;-82
2022/09/17 12:49:34;;;;;;;;;;;13.30;99.90;;;;;;4468840;32;44297;-77
2022/09/17 12:52:10;;;;;;;;;;;13.20;99.90;;;;;;4468834;32;43727;-78
2022/09/17 12:54:40;;;;;;;;;;;13.30;99.90;;;;;;4468993;32;43728;-87
2022/09/17 12:57:14;;;;;;;;;;;13.20;99.90;;;;;;4468545;32;42092;-81
2022/09/17 12:59:49;;;;;;;;;;;13.30;99.90;;;;;;4468455;32;43470;-77
2022/09/17 13:02:21;;;;;;;;;;;13.20;99.90;;;;;;4468601;32;43046;-76
2022/09/17 13:05:07;;;;;;;;;;;13.20;99.90;;;;;;4468711;32;43726;-78
2022/09/17 13:07:44;;;;;;;;;;;13.20;99.90;;;;;;4467332;32;43049;-78
2022/09/17 13:10:30;;;;;;;;;;;13.20;99.90;;;;;;4468457;32;43613;-79
2022/09/17 13:13:12;;;;;;;;;;;13.20;99.90;;;;;;4469185;32;19995;-77
2022/09/17 13:15:46;;;;;;;;;;;13.20;99.90;;;;;;4468479;32;43350;-78
2022/09/17 13:18:16;;;;;;;;;;;13.20;99.90;;;;;;4468145;32;43658;-76
2022/09/17 13:21:05;;;;;;;;;;;13.20;99.90;;;;;;4468243;32;44304;-78
2022/09/17 13:23:43;;;;;;;;;;;13.20;99.90;;;;;;4466826;32;42986;-78
2022/09/17 13:26:12;;;;;;;;;;;13.20;99.90;;;;;;4468160;32;43407;-79
2022/09/17 13:28:43;;;;;;;;;;;13.20;99.90;;;;;;4467915;32;43657;-79
2022/09/17 13:31:38;;;;;;;;;;;13.20;99.90;;;;;;4467147;32;43614;-79
2022/09/17 13:34:20;;;;;;;;;;;13.20;99.90;;;;;;4468239;32;42455;-80
2022/09/17 13:36:50;;;;;;;;;;;13.20;99.90;;;;;;4468165;32;42975;-80
2022/09/17 13:39:33;;;;;;;;;;;13.20;99.90;;;;;;4467799;32;43884;-78
2022/09/17 13:42:03;;;;;;;;;;;13.20;99.90;;;;;;4466917;32;42518;-78
2022/09/17 13:44:36;;;;;;;;;;;13.20;99.90;;;;;;4467792;32;19998;-80
2022/09/17 13:47:12;;;;;;;;;;;13.20;99.90;;;;;;4466989;32;43749;-75
2022/09/17 13:49:53;;;;;;;;;;;13.20;99.90;;;;;;4467700;32;44194;-77
2022/09/17 13:52:29;;;;;;;;;;;13.20;99.90;;;;;;4467925;32;43097;-76
2022/09/17 13:55:00;;;;;;;;;;;13.30;99.90;;;;;;4467586;32;44237;-78
2022/09/17 13:57:28;;;;;;;;;;;13.30;99.90;;;;;;4467613;32;43368;-77
2022/09/17 13:59:56;;;;;;;;;;;13.30;99.90;;;;;;4467447;32;43194;-79
2022/09/17 14:02:23;;;;;;;;;;;13.40;99.90;;;;;;4467857;32;43099;-81
2022/09/17 14:05:16;;;;;;;;;;;13.40;99.90;;;;;;4467818;32;43077;-79
2022/09/17 14:07:46;;;;;;;;;;;13.40;99.90;;;;;;4466189;32;42548;-78
2022/09/17 14:10:14;;;;;;;;;;;13.40;99.90;;;;;;4467972;32;43912;-79
2022/09/17 14:12:46;;;;;;;;;;;13.50;99.90;;;;;;4467368;32;42425;-76
2022/09/17 14:15:32;;;;;;;;;;;13.50;99.90;;;;;;4467172;32;20025;-77
2022/09/17 14:17:59;;;;;;;;;;;13.40;99.90;;;;;;4467054;32;42062;-79
2022/09/17 14:20:27;;;;;;;;;;;13.50;99.90;;;;;;4466183;32;42175;-80
2022/09/17 14:23:01;;;;;;;;;;;13.50;99.90;;;;;;4467199;32;43701;-79
2022/09/17 14:25:33;;;;;;;;;;;13.50;99.90;;;;;;4467566;32;44376;-78
2022/09/17 14:28:03;;;;;;;;;;;13.50;99.90;;;;;;4467443;32;42177;-75
2022/09/17 14:30:32;;;;;;;;;;;13.50;99.90;;;;;;4467348;32;42597;-79
2022/09/17 14:33:07;;;;;;;;;;;13.40;99.90;;;;;;4467098;32;45932;-79
2022/09/17 14:35:34;;;;;;;;;;;13.40;99.90;;;;;;4467121;32;42906;-78
2022/09/17 14:38:07;;;;;;;;;;;13.40;99.90;;;;;;4467333;32;43751;-79
2022/09/17 14:40:34;;;;;;;;;;;13.40;99.90;;;;;;4467182;32;43595;-77
2022/09/17 14:43:01;;;;;;;;;;;13.40;99.90;;;;;;4467164;32;42741;-78
2022/09/17 14:45:35;;;;;;;;;;;13.40;99.90;;;;;;4466695;32;20032;-78
2022/09/17 14:48:18;;;;;;;;;;;13.40;99.90;;;;;;4467180;32;43037;-79
2022/09/17 14:50:45;;;;;;;;;;;13.40;99.90;;;;;;4465874;32;42670;-80
2022/09/17 14:53:17;;;;;;;;;;;13.40;99.90;;;;;;4466990;32;43061;-79
2022/09/17 14:56:01;;;;;;;;;;;13.40;99.90;;;;;;4467305;32;43847;-79
2022/09/17 14:58:33;;;;;;;;;;;13.40;99.90;;;;;;4468622;32;43747;-79
2022/09/17 15:01:01;;;;;;;;;;;13.50;99.90;;;;;;4466185;32;43981;-78
2022/09/17 15:03:34;;;;;;;;;;;13.50;99.90;;;;;;4467469;32;43735;-78
2022/09/17 15:06:06;;;;;;;;;;;13.50;99.90;;;;;;4467159;32;43674;-78
2022/09/17 15:08:49;;;;;;;;;;;13.50;99.90;;;;;;4466657;32;43478;-79
2022/09/17 15:11:17;;;;;;;;;;;13.50;99.90;;;;;;4467080;32;44212;-81
2022/09/17 15:13:55;;;;;;;;;;;13.50;99.90;;;;;;4467828;32;42465;-81
2022/09/17 15:16:29;;;;;;;;;;;13.50;99.90;;;;;;4467363;32;21251;-80
2022/09/17 15:19:02;;;;;;;;;;;13.60;99.90;;;;;;4467110;32;42922;-86
2022/09/17 15:21:32;;;;;;;;;;;13.60;99.90;;;;;;4466078;32;43703;-80
2022/09/17 15:24:06;;;;;;;;;;;13.60;99.90;;;;;;4466737;32;43494;-78
2022/09/17 15:26:35;;;;;;;;;;;13.60;99.90;;;;;;4466199;32;43877;-79
2022/09/17 15:29:08;;;;;;;;;;;13.60;99.90;;;;;;4466905;32;44804;-77
2022/09/17 15:31:36;;;;;;;;;;;13.60;99.90;;;;;;4466860;32;44360;-74
2022/09/17 15:34:03;;;;;;;;;;;13.60;99.90;;;;;;4466435;32;42805;-74
2022/09/17 15:36:30;;;;;;;;;;;13.60;99.90;;;;;;4465288;32;42194;-78
2022/09/17 15:38:58;;;;;;;;;;;13.60;99.90;;;;;;4466330;32;42447;-81
2022/09/17 15:41:29;;;;;;;;;;;13.60;99.90;;;;;;4466405;32;44802;-79
2022/09/17 15:44:07;;;;;;;;;;;13.60;99.90;;;;;;4467386;32;43303;-81
2022/09/17 15:46:57;;;;;;;;;;;13.60;99.90;;;;;;4470530;32;20006;-78
2022/09/17 15:49:37;;;;;;;;;;;13.60;99.90;;;;;;4468521;32;43716;-79
2022/09/17 15:52:23;;;;;;;;;;;13.60;99.90;;;;;;4469018;32;42842;-77
2022/09/17 15:54:50;;;;;;;;;;;13.60;99.90;;;;;;4469468;32;43018;-77
2022/09/17 15:57:17;;;;;;;;;;;13.50;99.90;;;;;;4469143;32;43645;-78
2022/09/17 15:59:44;;;;;;;;;;;13.50;99.90;;;;;;4469219;32;42838;-78
2022/09/17 16:02:24;;;;;;;;;;;13.60;99.90;;;;;;4468379;32;43587;-79
2022/09/17 16:05:11;;;;;;;;;;;13.50;99.90;;;;;;4469584;32;43136;-77
2022/09/17 16:07:39;;;;;;;;;;;13.50;99.90;;;;;;4468332;32;44147;-78
2022/09/17 16:10:07;;;;;;;;;;;13.50;99.90;;;;;;4469210;32;43092;-77
2022/09/17 16:12:35;;;;;;;;;;;13.60;99.90;;;;;;4469300;32;43664;-79
2022/09/17 16:15:02;;;;;;;;;;;13.60;99.90;;;;;;4468675;32;43727;-79
2022/09/17 16:17:40;;;;;;;;;;;13.60;99.90;;;;;;4470093;32;20014;-79
2022/09/17 16:20:11;;;;;;;;;;;13.60;99.90;;;;;;4468252;32;43048;-80
2022/09/17 16:22:39;;;;;;;;;;;13.60;99.90;;;;;;4468483;32;42555;-77
2022/09/17 16:25:06;;;;;;;;;;;13.60;99.90;;;;;;4467950;32;43715;-78
2022/09/17 16:27:43;;;;;;;;;;;13.60;99.90;;;;;;4469247;32;43652;-78
2022/09/17 16:30:12;;;;;;;;;;;13.60;99.90;;;;;;4468914;32;42954;-78
2022/09/17 16:32:42;;;;;;;;;;;13.50;99.90;;;;;;4468927;32;42549;-82
2022/09/17 16:35:16;;;;;;;;;;;13.60;99.90;;;;;;4469077;32;43882;-78
2022/09/17 16:37:47;;;;;;;;;;;13.60;99.90;;;;;;4467653;32;43801;-82
2022/09/17 16:40:14;;;;;;;;;;;13.60;99.90;;;;;;4469104;32;43195;-78
2022/09/17 16:42:41;;;;;;;;;;;13.60;99.90;;;;;;4468674;32;42436;-78
2022/09/17 16:45:09;;;;;;;;;;;13.60;99.90;;;;;;4468995;32;43726;-77
2022/09/17 16:47:39;;;;;;;;;;;13.60;99.90;;;;;;4469821;32;20443;-77
2022/09/17 16:50:07;;;;;;;;;;;13.50;99.90;;;;;;4468661;32;43014;-79
2022/09/17 16:52:35;;;;;;;;;;;13.60;99.90;;;;;;4467619;32;43447;-83
2022/09/17 16:55:02;;;;;;;;;;;13.60;99.90;;;;;;4466762;32;42435;-78
2022/09/17 16:57:30;;;;;;;;;;;13.50;99.90;;;;;;4468404;32;44191;-79
2022/09/17 16:59:57;;;;;;;;;;;13.50;99.90;;;;;;4468511;32;43690;-80
2022/09/17 17:02:24;;;;;;;;;;;13.50;99.90;;;;;;4468478;32;43655;-79
2022/09/17 17:04:52;;;;;;;;;;;13.50;99.90;;;;;;4468544;32;42909;-83
2022/09/17 17:07:19;;;;;;;;;;;13.50;99.90;;;;;;4467375;32;42480;-79
2022/09/17 17:09:46;;;;;;;;;;;13.50;99.90;;;;;;4468289;32;42919;-80
2022/09/17 17:12:13;;;;;;;;;;;13.50;99.90;;;;;;4467602;32;43724;-79
2022/09/17 17:14:40;;;;;;;;;;;13.50;99.90;;;;;;4468694;32;43720;-78
2022/09/17 17:17:10;;;;;;;;;;;13.50;99.90;;;;;;4467993;32;43004;-79
2022/09/17 17:19:37;;;;;;;;;;;13.50;99.90;;;;;;4468063;32;20345;-77
2022/09/17 17:22:05;;;;;;;;;;;13.50;99.90;;;;;;4468430;32;42731;-78
2022/09/17 17:24:32;;;;;;;;;;;13.50;99.90;;;;;;4467520;32;44094;-78
2022/09/17 17:27:00;;;;;;;;;;;13.50;99.90;;;;;;4468145;32;43123;-78
2022/09/17 17:29:27;;;;;;;;;;;13.50;99.90;;;;;;4468126;32;42203;-79
2022/09/17 17:31:54;;;;;;;;;;;13.50;99.90;;;;;;4468217;32;43648;-80
2022/09/17 17:34:21;;;;;;;;;;;13.40;99.90;;;;;;4468192;32;42934;-80
2022/09/17 17:36:48;;;;;;;;;;;13.40;99.90;;;;;;4467844;32;42155;-81
2022/09/17 17:39:15;;;;;;;;;;;13.40;99.90;;;;;;4467852;32;43771;-78
2022/09/17 17:41:45;;;;;;;;;;;13.40;99.90;;;;;;4466978;32;43648;-78
2022/09/17 17:44:17;;;;;;;;;;;13.40;99.90;;;;;;4468144;32;42897;-80
2022/09/17 17:46:44;;;;;;;;;;;13.40;99.90;;;;;;4468011;32;43646;-79
2022/09/17 17:49:11;;;;;;;;;;;13.30;99.90;;;;;;4467634;32;43689;-82
2022/09/17 17:51:38;;;;;;;;;;;13.30;99.90;;;;;;4468642;32;20420;-78
2022/09/17 17:54:06;;;;;;;;;;;13.30;99.90;;;;;;4468122;32;43659;-78
2022/09/17 17:56:34;;;;;;;;;;;13.30;99.90;;;;;;4467477;32;43041;-82
2022/09/17 17:59:01;;;;;;;;;;;13.30;99.90;;;;;;4467790;32;42653;-79
2022/09/17 18:01:30;;;;;;;;;;;13.30;99.90;;;;;;4467740;32;44226;-79
2022/09/17 18:03:58;;;;;;;;;;;13.30;99.90;;;;;;4467400;32;42187;-78
2022/09/17 18:06:26;;;;;;;;;;;13.30;99.90;;;;;;4466927;32;42861;-80
2022/09/17 18:08:53;;;;;;;;;;;13.20;99.90;;;;;;4467400;32;42943;-78
2022/09/17 18:11:20;;;;;;;;;;;13.20;99.90;;;;;;4467555;32;42106;-80
2022/09/17 18:13:51;;;;;;;;;;;13.20;99.90;;;;;;4467570;32;42504;-77
2022/09/17 18:16:19;;;;;;;;;;;13.20;99.90;;;;;;4467062;32;43095;-80
2022/09/17 18:18:46;;;;;;;;;;;13.20;99.90;;;;;;4466153;32;43395;-76
2022/09/17 18:21:15;;;;;;;;;;;13.20;99.90;;;;;;4466180;32;43491;-77
2022/09/17 18:23:43;;;;;;;;;;;13.20;99.90;;;;;;4468228;32;20056;-81
2022/09/17 18:26:11;;;;;;;;;;;13.10;99.90;;;;;;4467363;32;43685;-79
2022/09/17 18:28:39;;;;;;;;;;;13.10;99.90;;;;;;4467425;32;43881;-79
2022/09/17 18:31:06;;;;;;;;;;;13.10;99.90;;;;;;4465957;32;42535;-79
2022/09/17 18:33:34;;;;;;;;;;;13.10;99.90;;;;;;4467032;32;42597;-76
2022/09/17 18:36:05;;;;;;;;;;;13.10;99.90;;;;;;4466992;32;42173;-81
2022/09/17 18:38:34;;;;;;;;;;;13.10;99.90;;;;;;4467419;32;43772;-79
2022/09/17 18:41:07;;;;;;;;;;;13.10;99.90;;;;;;4467336;32;43205;-76
2022/09/17 18:43:34;;;;;;;;;;;13.10;99.90;;;;;;4467464;32;42699;-81
2022/09/17 18:46:02;;;;;;;;;;;13.10;99.90;;;;;;4467055;32;42913;-78
2022/09/17 18:48:32;;;;;;;;;;;13.10;99.90;;;;;;4466932;32;43348;-79
2022/09/17 18:51:09;;;;;;;;;;;13.10;99.90;;;;;;4467062;32;42895;-76
2022/09/17 18:53:37;;;;;;;;;;;13.10;99.90;;;;;;4467052;32;43730;-80
2022/09/17 18:56:07;;;;;;;;;;;13.10;99.90;;;;;;4467460;32;20460;-79
2022/09/17 18:58:34;;;;;;;;;;;13.10;99.90;;;;;;4466687;32;44199;-78
2022/09/17 19:01:08;;;;;;;;;;;13.10;99.90;;;;;;4739619;26;43733;31
2022/09/17 19:03:35;;;;;;;;;;;13.10;99.90;;;;;;4402556;32;44733;-77
2022/09/17 19:06:03;;;;;;;;;;;13.10;99.90;;;;;;4405417;32;43191;-76
2022/09/17 19:08:30;;;;;;;;;;;13.10;99.90;;;;;;4405024;32;42970;-76
2022/09/17 19:10:57;;;;;;;;;;;13.10;99.90;;;;;;4405064;32;43703;-75
2022/09/17 19:13:25;;;;;;;;;;;13.10;99.90;;;;;;4405217;32;43770;-76
2022/09/17 19:15:57;;;;;;;;;;;13.10;99.90;;;;;;4403897;32;43901;-76
2022/09/17 19:18:24;;;;;;;;;;;13.10;99.90;;;;;;4405296;32;43005;-77
2022/09/17 19:20:51;;;;;;;;;;;13.10;99.90;;;;;;4405574;32;43683;-76
2022/09/17 19:23:18;;;;;;;;;;;13.10;99.90;;;;;;4405088;32;43052;-77
2022/09/17 19:25:45;;;;;;;;;;;13.10;99.90;;;;;;4416600;32;43685;-76
2022/09/17 19:28:12;;;;;;;;;;;13.10;99.90;;;;;;4406030;32;20022;-76
2022/09/17 19:30:39;;;;;;;;;;;13.10;99.90;;;;;;4405281;32;42145;-78
2022/09/17 19:33:06;;;;;;;;;;;13.10;99.90;;;;;;4405202;32;43651;-79
2022/09/17 19:35:33;;;;;;;;;;;13.10;99.90;;;;;;4404887;32;43646;-76
2022/09/17 19:38:00;;;;;;;;;;;13.10;99.90;;;;;;4404918;32;42934;-76
2022/09/17 19:40:27;;;;;;;;;;;13.10;99.90;;;;;;4403892;32;42155;-77
2022/09/17 19:42:55;;;;;;;;;;;13.10;99.90;;;;;;4405007;32;43043;-76
2022/09/17 19:45:22;;;;;;;;;;;13.10;99.90;;;;;;4405045;32;42484;-77
2022/09/17 19:47:50;;;;;;;;;;;13.10;99.90;;;;;;4403938;32;42587;-76
2022/09/17 19:50:17;;;;;;;;;;;13.10;99.90;;;;;;4404560;32;42531;-77
2022/09/17 19:52:44;;;;;;;;;;;13.10;99.90;;;;;;4415905;32;43648;-76
2022/09/17 19:55:13;;;;;;;;;;;13.10;99.90;;;;;;4404726;32;43656;-76
2022/09/17 19:57:40;;;;;;;;;;;13.10;99.90;;;;;;4404779;32;44233;-78
2022/09/17 20:00:10;;;;;;;;;;;13.10;99.90;;;;;;4405873;32;20045;-77
2022/09/17 20:02:39;;;;;;;;;;;13.10;99.90;;;;;;4404513;32;42608;-77
2022/09/17 20:05:07;;;;;;;;;;;13.00;99.90;;;;;;4404689;32;42856;-81
2022/09/17 20:07:34;;;;;;;;;;;13.00;99.90;;;;;;4404116;32;43034;-75
2022/09/17 20:10:01;;;;;;;;;;;13.00;99.90;;;;;;4404841;32;42928;-78
2022/09/17 20:12:28;;;;;;;;;;;13.00;99.90;;;;;;4404844;32;42441;-75
2022/09/17 20:14:58;;;;;;;;;;;13.10;99.90;;;;;;4404870;32;43241;-77
2022/09/17 20:17:25;;;;;;;;;;;13.00;99.90;;;;;;4404890;32;43420;-78
2022/09/17 20:19:52;;;;;;;;;;;13.00;99.90;;;;;;4404625;32;43046;-80
2022/09/17 20:22:21;;;;;;;;;;;13.00;99.90;;;;;;4404708;32;42533;-75
2022/09/17 20:24:48;;;;;;;;;;;13.00;99.90;;;;;;4404937;32;43691;-76
2022/09/17 20:27:17;;;;;;;;;;;13.00;99.90;;;;;;4404859;32;43008;-78
2022/09/17 20:29:46;;;;;;;;;;;13.00;99.90;;;;;;4404698;32;42607;-78
2022/09/17 20:32:13;;;;;;;;;;;13.00;99.90;;;;;;4408539;32;19999;-77
2022/09/17 20:34:40;;;;;;;;;;;13.00;99.90;;;;;;4418912;32;43506;-79
2022/09/17 20:37:07;;;;;;;;;;;13.00;99.90;;;;;;4407434;32;43258;-78
2022/09/17 20:39:39;;;;;;;;;;;13.00;99.90;;;;;;4407498;32;43373;-76
2022/09/17 20:42:06;;;;;;;;;;;13.00;99.90;;;;;;4407489;32;43694;-77
2022/09/17 20:44:33;;;;;;;;;;;13.00;99.90;;;;;;4407151;32;42495;-75
2022/09/17 20:47:01;;;;;;;;;;;13.00;99.90;;;;;;4407510;32;43109;-77
2022/09/17 20:49:28;;;;;;;;;;;13.00;99.90;;;;;;4407230;32;43022;-76
2022/09/17 20:51:56;;;;;;;;;;;13.00;99.90;;;;;;4407282;32;43653;-76
2022/09/17 20:54:23;;;;;;;;;;;12.90;99.90;;;;;;4418744;32;42704;-75
2022/09/17 20:56:50;;;;;;;;;;;13.00;99.90;;;;;;4407209;32;43600;-80
2022/09/17 20:59:18;;;;;;;;;;;12.90;99.90;;;;;;4407150;32;42125;-77
2022/09/17 21:01:46;;;;;;;;;;;13.00;99.90;;;;;;4407193;32;43708;-78
2022/09/17 21:04:14;;;;;;;;;;;12.90;99.90;;;;;;4408395;32;20007;-77
2022/09/17 21:06:42;;;;;;;;;;;13.00;99.90;;;;;;4407214;32;43737;-77
2022/09/17 21:09:11;;;;;;;;;;;12.90;99.90;;;;;;4406029;32;42525;-79
2022/09/17 21:11:38;;;;;;;;;;;12.90;99.90;;;;;;4406743;32;42681;-77
2022/09/17 21:14:05;;;;;;;;;;;13.00;99.90;;;;;;4406783;32;42375;-77
2022/09/17 21:16:32;;;;;;;;;;;12.90;99.90;;;;;;4406766;32;42440;-78
2022/09/17 21:19:01;;;;;;;;;;;13.00;99.90;;;;;;4406868;32;43086;-76
2022/09/17 21:21:28;;;;;;;;;;;12.90;99.90;;;;;;4407005;32;42211;-76
2022/09/17 21:24:00;;;;;;;;;;;12.90;99.90;;;;;;4406925;32;43690;-78
2022/09/17 21:26:27;;;;;;;;;;;12.90;99.90;;;;;;4406965;32;43994;-74
2022/09/17 21:28:55;;;;;;;;;;;12.90;99.90;;;;;;4406646;32;42938;-79
2022/09/17 21:31:23;;;;;;;;;;;12.90;99.90;;;;;;4405598;32;43478;-77
2022/09/17 21:33:59;;;;;;;;;;;12.90;99.90;;;;;;4406994;32;43621;-82
2022/09/17 21:36:27;;;;;;;;;;;12.90;99.90;;;;;;4407963;32;20004;-77
2022/09/17 21:38:55;;;;;;;;;;;12.90;99.90;;;;;;4417831;32;42957;-77
2022/09/17 21:41:23;;;;;;;;;;;12.90;99.90;;;;;;4406408;32;43705;-77
2022/09/17 21:43:51;;;;;;;;;;;12.90;99.90;;;;;;4406423;32;44717;-76
2022/09/17 21:46:20;;;;;;;;;;;12.90;99.90;;;;;;4406489;32;44190;-75
2022/09/17 21:48:48;;;;;;;;;;;12.90;99.90;;;;;;4405428;32;43115;-77
2022/09/17 21:51:15;;;;;;;;;;;12.90;99.90;;;;;;4405483;32;42923;-79
2022/09/17 21:53:43;;;;;;;;;;;12.90;99.90;;;;;;4406536;32;42884;-76
2022/09/17 21:56:14;;;;;;;;;;;12.90;99.90;;;;;;4406417;32;43682;-76
2022/09/17 21:58:42;;;;;;;;;;;12.90;99.90;;;;;;4406506;32;43332;-76
2022/09/17 22:01:13;;;;;;;;;;;12.90;99.90;;;;;;4406489;32;43022;-80
2022/09/17 22:03:41;;;;;;;;;;;12.90;99.90;;;;;;4406441;32;43041;-76
2022/09/17 22:06:10;;;;;;;;;;;12.90;99.90;;;;;;4405963;32;43029;-78